This is the latest recevied weather packets stored in our database for station/object KO6TH-15. If no packets are shown the sender has not sent any weather packets the latest 10 day(s).
| Time | Temp. | Humidity | Pressure | Rain* | Wind** | Luminosity | Snow |
|---|---|---|---|---|---|---|---|
| 1777503141 | 26.67° C | 45% | 0 hPa | 0 mm | - | - | - |
| 1777502541 | 26.67° C | 44% | 0 hPa | 0 mm | - | - | - |
| 1777501911 | 27.22° C | 45% | 0 hPa | 0 mm | - | - | - |
| 1777501311 | 26.11° C | 47% | 0 hPa | 0 mm | - | - | - |
| 1777500681 | 26.67° C | 46% | 0 hPa | 0 mm | - | - | - |
| 1777500051 | 26.67° C | 46% | 0 hPa | 0 mm | - | - | - |
| 1777499421 | 26.11° C | 48% | 0 hPa | 0 mm | - | - | - |
| 1777498791 | 25.56° C | 48% | 0 hPa | 0 mm | - | - | - |
| 1777498161 | 25.56° C | 48% | 0 hPa | 0 mm | - | - | - |
| 1777497531 | 26.67° C | 47% | 0 hPa | 0 mm | - | - | - |
| 1777496931 | 25.56° C | 49% | 0 hPa | 0 mm | - | - | - |
| 1777496301 | 25.56° C | 48% | 0 hPa | 0 mm | - | - | - |
| 1777495701 | 26.11° C | 48% | 0 hPa | 0 mm | - | - | - |
| 1777495101 | 25.56° C | 48% | 0 hPa | 0 mm | - | - | - |
| 1777494501 | 25.56° C | 47% | 0 hPa | 0 mm | - | - | - |
| 1777493871 | 25.56° C | 48% | 0 hPa | 0 mm | - | - | - |
| 1777493271 | 23.89° C | 50% | 0 hPa | 0 mm | - | - | - |
| 1777492671 | 24.44° C | 48% | 0 hPa | 0 mm | - | - | - |
| 1777492071 | 24.44° C | 48% | 0 hPa | 0 mm | - | - | - |
| 1777491441 | 23.33° C | 52% | 0 hPa | 0 mm | - | - | - |
| 1777490811 | 23.89° C | 51% | 0 hPa | 0 mm | - | - | - |
| 1777490211 | 23.89° C | 51% | 0 hPa | 0 mm | - | - | - |
| 1777489581 | 23.33° C | 52% | 0 hPa | 0 mm | - | - | - |
| 1777488951 | 23.33° C | 53% | 0 hPa | 0 mm | - | - | - |
| 1777488321 | 23.89° C | 51% | 0 hPa | 0 mm | - | - | - |
* Rain latest hour (hover to see other rain measurements)
** Current wind speed in m/s (hover to see current wind gust speed)